createdAt,value
2022-08-25T00:01:32.482Z,100.00
2022-08-25T00:04:02.271Z,100.00
2022-08-25T00:06:31.481Z,100.00
2022-08-25T00:09:00.079Z,100.00
2022-08-25T00:11:30.461Z,100.00
2022-08-25T00:14:06.160Z,100.00
2022-08-25T00:16:33.810Z,100.00
2022-08-25T00:19:06.357Z,100.00
2022-08-25T00:21:34.491Z,100.00
2022-08-25T00:24:02.930Z,100.00
2022-08-25T00:26:31.376Z,100.00
2022-08-25T00:29:02.016Z,100.00
2022-08-25T00:31:38.223Z,100.00
2022-08-25T00:34:14.938Z,100.00
2022-08-25T00:36:42.969Z,100.00
2022-08-25T00:39:11.229Z,100.00
2022-08-25T00:41:42.891Z,100.00
2022-08-25T00:44:13.349Z,100.00
2022-08-25T00:46:45.421Z,100.00
2022-08-25T00:49:47.848Z,100.00
2022-08-25T00:52:25.817Z,100.00
2022-08-25T00:55:07.780Z,100.00
2022-08-25T00:57:57.686Z,100.00
2022-08-25T01:00:38.336Z,100.00
2022-08-25T01:03:07.120Z,100.00
2022-08-25T01:05:35.464Z,100.00
2022-08-25T01:08:06.897Z,100.00
2022-08-25T01:10:37.416Z,100.00
2022-08-25T01:13:16.478Z,100.00
2022-08-25T01:15:49.374Z,100.00
2022-08-25T01:18:17.001Z,100.00
2022-08-25T01:20:46.871Z,100.00
2022-08-25T01:23:14.372Z,100.00
2022-08-25T01:25:51.721Z,100.00
2022-08-25T01:28:20.568Z,100.00
2022-08-25T01:30:49.010Z,100.00
2022-08-25T01:33:19.546Z,100.00
2022-08-25T01:35:48.288Z,100.00
2022-08-25T01:38:16.219Z,100.00
2022-08-25T01:40:44.079Z,100.00
2022-08-25T01:43:11.873Z,100.00
2022-08-25T01:45:41.952Z,100.00
2022-08-25T01:48:11.109Z,100.00
2022-08-25T01:50:40.450Z,100.00
2022-08-25T01:53:27.082Z,100.00
2022-08-25T01:56:02.679Z,100.00
2022-08-25T01:58:34.426Z,100.00
2022-08-25T02:01:05.855Z,100.00
2022-08-25T02:03:38.359Z,100.00
2022-08-25T02:06:16.606Z,100.00
2022-08-25T02:08:44.558Z,100.00
2022-08-25T02:11:13.964Z,100.00
2022-08-25T02:13:42.691Z,100.00
2022-08-25T02:16:15.212Z,100.00
2022-08-25T02:18:42.837Z,100.00
2022-08-25T02:21:11.547Z,100.00
2022-08-25T02:23:39.066Z,100.00
2022-08-25T02:26:06.578Z,100.00
2022-08-25T02:28:34.634Z,100.00
2022-08-25T02:31:02.800Z,100.00
2022-08-25T02:33:30.430Z,100.00
2022-08-25T02:36:02.597Z,100.00
2022-08-25T02:38:30.279Z,100.00
2022-08-25T02:40:59.967Z,100.00
2022-08-25T02:43:28.425Z,100.00
2022-08-25T02:45:56.577Z,100.00
2022-08-25T02:48:24.619Z,100.00
2022-08-25T02:50:53.145Z,100.00
2022-08-25T02:53:21.764Z,100.00
2022-08-25T02:55:49.364Z,100.00
2022-08-25T02:58:16.967Z,100.00
2022-08-25T03:00:46.178Z,100.00
2022-08-25T03:03:14.467Z,100.00
2022-08-25T03:05:42.173Z,100.00
2022-08-25T03:08:12.049Z,100.00
2022-08-25T03:10:39.719Z,100.00
2022-08-25T03:13:07.301Z,100.00
2022-08-25T03:15:37.952Z,100.00
2022-08-25T03:18:08.619Z,100.00
2022-08-25T03:20:36.325Z,100.00
2022-08-25T03:23:05.749Z,100.00
2022-08-25T03:25:52.315Z,100.00
2022-08-25T03:28:20.575Z,100.00
2022-08-25T03:30:56.105Z,100.00
2022-08-25T03:33:23.898Z,100.00
2022-08-25T03:35:51.369Z,100.00
2022-08-25T03:38:18.877Z,100.00
2022-08-25T03:40:46.389Z,100.00
2022-08-25T03:43:13.935Z,100.00
2022-08-25T03:45:43.462Z,100.00
2022-08-25T03:48:11.125Z,100.00
2022-08-25T03:50:50.719Z,100.00
2022-08-25T03:53:20.719Z,100.00
2022-08-25T03:55:48.303Z,100.00
2022-08-25T03:58:15.957Z,100.00
2022-08-25T04:00:43.462Z,100.00
2022-08-25T04:03:11.406Z,100.00
2022-08-25T04:05:40.069Z,100.00
2022-08-25T04:08:08.169Z,100.00
2022-08-25T04:10:37.169Z,100.00
2022-08-25T04:13:06.389Z,100.00
2022-08-25T04:15:34.090Z,100.00
2022-08-25T04:18:01.723Z,100.00
2022-08-25T04:20:29.360Z,100.00
2022-08-25T04:23:00.714Z,100.00
2022-08-25T04:25:28.335Z,100.00
2022-08-25T04:27:55.877Z,100.00
2022-08-25T04:30:23.759Z,100.00
2022-08-25T04:32:51.629Z,100.00
2022-08-25T04:35:19.180Z,100.00
2022-08-25T04:37:48.891Z,100.00
2022-08-25T04:40:16.607Z,100.00
2022-08-25T04:42:45.165Z,100.00
2022-08-25T04:45:15.799Z,100.00
2022-08-25T04:47:43.245Z,100.00
2022-08-25T04:50:11.299Z,100.00
2022-08-25T04:52:38.824Z,100.00
2022-08-25T04:55:06.675Z,100.00
2022-08-25T04:57:34.468Z,100.00
2022-08-25T05:00:02.597Z,100.00
2022-08-25T05:02:30.028Z,100.00
2022-08-25T05:04:57.759Z,100.00
2022-08-25T05:07:25.245Z,100.00
2022-08-25T05:09:52.718Z,100.00
2022-08-25T05:12:20.998Z,100.00
2022-08-25T05:14:48.695Z,100.00
2022-08-25T05:17:16.197Z,100.00
2022-08-25T05:19:44.040Z,100.00
2022-08-25T05:22:11.596Z,100.00
2022-08-25T05:24:39.139Z,100.00
2022-08-25T05:27:06.681Z,100.00
2022-08-25T05:29:35.785Z,100.00
2022-08-25T05:32:03.885Z,100.00
2022-08-25T05:34:31.468Z,100.00
2022-08-25T05:37:00.331Z,100.00
2022-08-25T05:39:27.919Z,100.00
2022-08-25T05:41:55.474Z,100.00
2022-08-25T05:44:22.970Z,100.00
2022-08-25T05:46:51.455Z,100.00
2022-08-25T05:49:19.257Z,100.00
2022-08-25T05:51:46.798Z,100.00
2022-08-25T05:54:14.359Z,100.00
2022-08-25T05:56:41.811Z,100.00
2022-08-25T05:59:09.830Z,100.00
2022-08-25T06:01:56.020Z,100.00
2022-08-25T06:04:24.129Z,100.00
2022-08-25T06:06:54.081Z,100.00
2022-08-25T06:09:23.239Z,100.00
2022-08-25T06:11:54.696Z,100.00
2022-08-25T06:14:24.120Z,100.00
2022-08-25T06:16:52.490Z,100.00
2022-08-25T06:19:21.360Z,100.00
2022-08-25T06:21:49.431Z,100.00
2022-08-25T06:24:17.259Z,100.00
2022-08-25T06:26:44.679Z,100.00
2022-08-25T06:29:14.289Z,100.00
2022-08-25T06:31:42.959Z,100.00
2022-08-25T06:34:11.483Z,100.00
2022-08-25T06:36:39.400Z,100.00
2022-08-25T06:39:07.376Z,100.00
2022-08-25T06:41:37.569Z,100.00
2022-08-25T06:44:06.079Z,100.00
2022-08-25T06:46:36.319Z,100.00
2022-08-25T06:49:05.741Z,100.00
2022-08-25T06:51:36.338Z,100.00
2022-08-25T06:54:07.018Z,100.00
2022-08-25T06:56:34.670Z,100.00
2022-08-25T06:59:06.382Z,100.00
2022-08-25T07:01:34.826Z,100.00
2022-08-25T07:04:10.282Z,100.00
2022-08-25T07:06:40.580Z,100.00
2022-08-25T07:09:12.666Z,100.00
2022-08-25T07:11:44.199Z,100.00
2022-08-25T07:14:14.016Z,100.00
2022-08-25T07:16:42.462Z,100.00
2022-08-25T07:19:16.320Z,100.00
2022-08-25T07:21:47.033Z,100.00
2022-08-25T07:24:15.329Z,100.00
2022-08-25T07:26:43.800Z,100.00
2022-08-25T07:29:18.349Z,100.00
2022-08-25T07:31:47.669Z,100.00
2022-08-25T07:34:34.017Z,100.00
2022-08-25T07:37:05.185Z,100.00
2022-08-25T07:39:34.199Z,100.00
2022-08-25T07:42:01.771Z,100.00
2022-08-25T07:44:29.589Z,100.00
2022-08-25T07:46:57.564Z,100.00
2022-08-25T07:49:26.958Z,100.00
2022-08-25T07:52:06.454Z,100.00
2022-08-25T07:54:37.884Z,100.00
2022-08-25T07:57:08.601Z,100.00
2022-08-25T07:59:42.987Z,100.00
2022-08-25T08:02:18.141Z,100.00
2022-08-25T08:04:52.030Z,100.00
2022-08-25T08:07:22.797Z,100.00
2022-08-25T08:10:05.251Z,100.00
2022-08-25T08:12:39.742Z,100.00
2022-08-25T08:15:10.403Z,100.00
2022-08-25T08:17:39.826Z,100.00
2022-08-25T08:20:09.475Z,100.00
2022-08-25T08:22:39.268Z,100.00
2022-08-25T08:25:08.638Z,100.00
2022-08-25T08:27:39.589Z,100.00
2022-08-25T08:30:07.630Z,100.00
2022-08-25T08:33:05.871Z,100.00
2022-08-25T08:35:22.885Z,100.00
2022-08-25T08:37:52.539Z,100.00
2022-08-25T08:40:22.420Z,100.00
2022-08-25T08:43:18.524Z,100.00
2022-08-25T08:45:53.774Z,100.00
2022-08-25T08:48:45.424Z,100.00
2022-08-25T08:51:26.153Z,100.00
2022-08-25T08:54:06.665Z,100.00
2022-08-25T08:56:48.388Z,100.00
2022-08-25T08:59:29.979Z,100.00
2022-08-25T09:02:02.052Z,100.00
2022-08-25T09:04:35.358Z,100.00
2022-08-25T09:07:05.139Z,100.00
2022-08-25T09:09:36.293Z,100.00
2022-08-25T09:12:28.619Z,100.00
2022-08-25T09:15:23.737Z,100.00
2022-08-25T09:18:21.179Z,100.00
2022-08-25T09:20:59.764Z,100.00
2022-08-25T09:23:52.519Z,100.00
2022-08-25T09:26:20.118Z,100.00
2022-08-25T09:29:16.395Z,100.00
2022-08-25T09:31:45.479Z,100.00
2022-08-25T09:34:19.049Z,100.00
2022-08-25T09:36:48.825Z,100.00
2022-08-25T09:39:17.120Z,100.00
2022-08-25T09:41:51.532Z,100.00
2022-08-25T09:44:28.131Z,100.00
2022-08-25T09:47:02.154Z,100.00
2022-08-25T09:49:42.763Z,100.00
2022-08-25T09:52:28.409Z,100.00
2022-08-25T09:54:57.978Z,100.00
2022-08-25T09:57:52.728Z,100.00
2022-08-25T10:00:23.614Z,100.00
2022-08-25T10:03:22.817Z,100.00
2022-08-25T10:05:56.300Z,100.00
2022-08-25T10:08:32.448Z,100.00
2022-08-25T10:11:02.825Z,100.00
2022-08-25T10:13:46.982Z,100.00
2022-08-25T10:16:36.299Z,100.00
2022-08-25T10:19:22.240Z,100.00
2022-08-25T10:22:32.349Z,100.00
2022-08-25T10:25:00.587Z,100.00
2022-08-25T10:27:39.348Z,100.00
2022-08-25T10:30:24.328Z,100.00
2022-08-25T10:33:00.890Z,100.00
2022-08-25T10:35:45.689Z,100.00
2022-08-25T10:38:35.499Z,100.00
2022-08-25T10:41:21.529Z,100.00
2022-08-25T10:44:33.666Z,100.00
2022-08-25T10:47:34.938Z,100.00
2022-08-25T10:50:10.714Z,100.00
2022-08-25T10:53:06.556Z,100.00
2022-08-25T10:55:48.997Z,100.00
2022-08-25T10:58:47.345Z,100.00
2022-08-25T11:01:28.827Z,100.00
2022-08-25T11:04:07.634Z,100.00
2022-08-25T11:06:42.519Z,100.00
2022-08-25T11:09:16.183Z,100.00
2022-08-25T11:11:49.517Z,100.00
2022-08-25T11:14:35.189Z,100.00
2022-08-25T11:17:20.369Z,100.00
2022-08-25T11:19:51.509Z,100.00
2022-08-25T11:22:27.710Z,100.00
2022-08-25T11:25:18.634Z,100.00
2022-08-25T11:28:23.356Z,100.00
2022-08-25T11:30:53.355Z,100.00
2022-08-25T11:33:25.399Z,100.00
2022-08-25T11:35:59.317Z,100.00
2022-08-25T11:38:56.762Z,100.00
2022-08-25T11:41:57.072Z,100.00
2022-08-25T11:45:02.772Z,100.00
2022-08-25T11:47:31.599Z,100.00
2022-08-25T11:50:31.807Z,100.00
2022-08-25T11:53:11.607Z,100.00
2022-08-25T11:55:52.400Z,100.00
2022-08-25T11:58:31.896Z,100.00
2022-08-25T12:01:02.217Z,100.00
2022-08-25T12:03:32.492Z,100.00
2022-08-25T12:06:25.159Z,100.00
2022-08-25T12:09:01.465Z,100.00
2022-08-25T12:11:38.119Z,100.00
2022-08-25T12:14:16.404Z,100.00
2022-08-25T12:17:05.513Z,100.00
2022-08-25T12:19:36.347Z,100.00
2022-08-25T12:22:04.161Z,100.00
2022-08-25T12:24:48.186Z,100.00
2022-08-25T12:27:19.572Z,100.00
2022-08-25T12:29:58.978Z,100.00
2022-08-25T12:32:38.587Z,100.00
2022-08-25T12:35:24.229Z,100.00
2022-08-25T12:37:59.099Z,100.00
2022-08-25T12:40:35.402Z,100.00
2022-08-25T12:43:37.625Z,100.00
2022-08-25T12:46:25.889Z,100.00
2022-08-25T12:49:12.039Z,100.00
2022-08-25T12:52:20.559Z,100.00
2022-08-25T12:54:54.728Z,100.00
2022-08-25T12:57:24.980Z,100.00
2022-08-25T12:59:59.869Z,100.00
2022-08-25T13:02:53.530Z,100.00
2022-08-25T13:05:42.009Z,100.00
2022-08-25T13:08:33.683Z,96.83
2022-08-25T13:11:49.175Z,100.00
2022-08-25T13:14:26.990Z,100.00
2022-08-25T13:16:58.303Z,100.00
2022-08-25T13:19:28.095Z,100.00
2022-08-25T13:22:16.399Z,100.00
2022-08-25T13:24:47.532Z,100.00
2022-08-25T13:27:28.244Z,100.00
2022-08-25T13:29:59.158Z,100.00
2022-08-25T13:32:32.557Z,100.00
2022-08-25T13:35:21.439Z,100.00
2022-08-25T13:37:50.876Z,99.07
2022-08-25T13:40:28.035Z,92.49
2022-08-25T13:43:01.254Z,98.31
2022-08-25T13:45:41.317Z,92.09
2022-08-25T13:48:22.754Z,91.19
2022-08-25T13:50:54.510Z,92.43
2022-08-25T13:53:26.000Z,92.24
2022-08-25T13:55:58.391Z,86.26
2022-08-25T13:58:38.754Z,86.89
2022-08-25T14:01:22.903Z,91.23
2022-08-25T14:04:50.853Z,99.26
2022-08-25T14:07:26.255Z,100.00
2022-08-25T14:10:08.839Z,100.00
2022-08-25T14:12:47.937Z,100.00
2022-08-25T14:15:17.252Z,100.00
2022-08-25T14:17:49.197Z,100.00
2022-08-25T14:20:25.777Z,100.00
2022-08-25T14:22:58.257Z,100.00
2022-08-25T14:25:28.359Z,100.00
2022-08-25T14:28:08.084Z,100.00
2022-08-25T14:30:39.991Z,100.00
2022-08-25T14:33:12.451Z,100.00
2022-08-25T14:35:42.131Z,100.00
2022-08-25T14:38:11.601Z,100.00
2022-08-25T14:40:39.962Z,100.00
2022-08-25T14:43:09.654Z,100.00
2022-08-25T14:45:41.173Z,100.00
2022-08-25T14:48:14.441Z,100.00
2022-08-25T14:50:42.336Z,100.00
2022-08-25T14:53:12.025Z,100.00
2022-08-25T14:55:39.940Z,100.00
2022-08-25T14:58:08.227Z,100.00
2022-08-25T15:00:44.645Z,100.00
2022-08-25T15:03:15.419Z,100.00
2022-08-25T15:05:43.020Z,100.00
2022-08-25T15:08:33.105Z,100.00
2022-08-25T15:11:00.998Z,100.00
2022-08-25T15:13:28.571Z,100.00
2022-08-25T15:15:58.047Z,100.00
2022-08-25T15:18:26.077Z,100.00
2022-08-25T15:20:53.555Z,100.00
2022-08-25T15:23:21.139Z,100.00
2022-08-25T15:25:52.661Z,100.00
2022-08-25T15:28:22.199Z,100.00
2022-08-25T15:30:51.030Z,100.00
2022-08-25T15:33:18.876Z,100.00
2022-08-25T15:35:46.562Z,100.00
2022-08-25T15:38:17.549Z,100.00
2022-08-25T15:40:44.999Z,100.00
2022-08-25T15:43:14.250Z,100.00
2022-08-25T15:45:41.759Z,100.00
2022-08-25T15:48:09.835Z,100.00
2022-08-25T15:50:38.571Z,100.00
2022-08-25T15:53:10.382Z,100.00
2022-08-25T15:55:40.509Z,100.00
2022-08-25T15:58:08.813Z,100.00
2022-08-25T16:00:37.826Z,100.00
2022-08-25T16:03:07.914Z,100.00
2022-08-25T16:05:37.388Z,100.00
2022-08-25T16:08:05.767Z,100.00
2022-08-25T16:10:39.307Z,100.00
2022-08-25T16:13:09.791Z,100.00
2022-08-25T16:15:39.077Z,100.00
2022-08-25T16:18:07.978Z,100.00
2022-08-25T16:20:36.346Z,100.00
2022-08-25T16:23:04.599Z,100.00
2022-08-25T16:25:32.767Z,100.00
2022-08-25T16:28:04.162Z,100.00
2022-08-25T16:30:31.648Z,100.00
2022-08-25T16:32:59.238Z,100.00
2022-08-25T16:35:28.618Z,100.00
2022-08-25T16:37:57.107Z,100.00
2022-08-25T16:40:26.595Z,100.00
2022-08-25T16:42:55.125Z,100.00
2022-08-25T16:45:22.879Z,100.00
2022-08-25T16:47:50.716Z,100.00
2022-08-25T16:50:18.221Z,100.00
2022-08-25T16:53:04.217Z,100.00
2022-08-25T16:55:39.442Z,100.00
2022-08-25T16:58:08.116Z,100.00
2022-08-25T17:00:37.890Z,100.00
2022-08-25T17:03:06.609Z,100.00
2022-08-25T17:05:41.639Z,100.00
2022-08-25T17:08:27.928Z,100.00
2022-08-25T17:11:17.738Z,100.00
2022-08-25T17:13:49.702Z,100.00
2022-08-25T17:16:21.402Z,100.00
2022-08-25T17:18:49.409Z,100.00
2022-08-25T17:21:24.357Z,100.00
2022-08-25T17:23:54.539Z,100.00
2022-08-25T17:26:27.709Z,100.00
2022-08-25T17:29:01.070Z,100.00
2022-08-25T17:31:29.985Z,100.00
2022-08-25T17:33:59.008Z,100.00
2022-08-25T17:36:27.526Z,100.00
2022-08-25T17:38:57.052Z,100.00
2022-08-25T17:41:25.142Z,100.00
2022-08-25T17:43:52.665Z,100.00
2022-08-25T17:46:21.776Z,100.00
2022-08-25T17:48:49.448Z,100.00
2022-08-25T17:51:17.182Z,100.00
2022-08-25T17:53:44.941Z,100.00
2022-08-25T17:56:18.660Z,100.00
2022-08-25T17:58:47.517Z,100.00
2022-08-25T18:01:18.454Z,100.00
2022-08-25T18:03:46.806Z,100.00
2022-08-25T18:06:16.050Z,100.00
2022-08-25T18:08:44.924Z,100.00
2022-08-25T18:11:20.446Z,100.00
2022-08-25T18:13:48.066Z,100.00
2022-08-25T18:16:18.741Z,100.00
2022-08-25T18:18:46.258Z,100.00
2022-08-25T18:21:16.847Z,100.00
2022-08-25T18:23:44.605Z,100.00
2022-08-25T18:26:13.989Z,100.00
2022-08-25T18:28:43.887Z,100.00
2022-08-25T18:31:13.219Z,100.00
2022-08-25T18:33:44.591Z,100.00
2022-08-25T18:36:13.660Z,100.00
2022-08-25T18:39:00.877Z,100.00
2022-08-25T18:41:35.189Z,100.00
2022-08-25T18:44:03.519Z,100.00
2022-08-25T18:46:31.159Z,100.00
2022-08-25T18:49:00.509Z,100.00
2022-08-25T18:51:27.958Z,100.00
2022-08-25T18:54:01.432Z,100.00
2022-08-25T18:56:29.910Z,100.00
2022-08-25T18:58:57.824Z,100.00
2022-08-25T19:01:25.485Z,100.00
2022-08-25T19:03:53.413Z,100.00
2022-08-25T19:06:21.004Z,100.00
2022-08-25T19:08:48.868Z,100.00
2022-08-25T19:11:17.513Z,100.00
2022-08-25T19:13:51.427Z,100.00
2022-08-25T19:16:35.640Z,100.00
2022-08-25T19:19:06.449Z,100.00
2022-08-25T19:21:35.062Z,100.00
2022-08-25T19:24:03.059Z,100.00
2022-08-25T19:26:31.806Z,100.00
2022-08-25T19:28:59.332Z,100.00
2022-08-25T19:31:27.872Z,100.00
2022-08-25T19:34:02.087Z,100.00
2022-08-25T19:36:30.747Z,100.00
2022-08-25T19:39:01.384Z,100.00
2022-08-25T19:41:31.467Z,100.00
2022-08-25T19:44:00.027Z,100.00
2022-08-25T19:46:32.344Z,100.00
2022-08-25T19:49:08.933Z,100.00
2022-08-25T19:51:44.163Z,100.00
2022-08-25T19:54:16.288Z,100.00
2022-08-25T19:56:54.406Z,100.00
2022-08-25T19:59:34.251Z,100.00
2022-08-25T20:02:11.141Z,100.00
2022-08-25T20:04:38.737Z,100.00
2022-08-25T20:07:07.797Z,100.00
2022-08-25T20:09:41.146Z,100.00
2022-08-25T20:12:10.661Z,100.00
2022-08-25T20:14:38.767Z,100.00
2022-08-25T20:17:23.311Z,100.00
2022-08-25T20:19:54.473Z,100.00
2022-08-25T20:22:26.177Z,100.00
2022-08-25T20:25:00.302Z,100.00
2022-08-25T20:27:33.868Z,100.00
2022-08-25T20:30:02.691Z,100.00
2022-08-25T20:32:33.142Z,100.00
2022-08-25T20:35:02.279Z,100.00
2022-08-25T20:37:30.997Z,100.00
2022-08-25T20:39:58.877Z,100.00
2022-08-25T20:42:26.466Z,100.00
2022-08-25T20:44:54.734Z,100.00
2022-08-25T20:47:22.828Z,100.00
2022-08-25T20:49:50.593Z,100.00
2022-08-25T20:52:19.686Z,100.00
2022-08-25T20:54:50.326Z,100.00
2022-08-25T20:57:25.485Z,100.00
2022-08-25T20:59:54.916Z,100.00
2022-08-25T21:02:24.063Z,100.00
2022-08-25T21:04:53.356Z,100.00
2022-08-25T21:07:23.906Z,100.00
2022-08-25T21:09:51.847Z,100.00
2022-08-25T21:12:19.967Z,100.00
2022-08-25T21:14:48.393Z,100.00
2022-08-25T21:17:19.138Z,100.00
2022-08-25T21:22:16.527Z,100.00
2022-08-25T21:24:45.033Z,100.00
2022-08-25T21:27:12.628Z,100.00
2022-08-25T21:29:44.741Z,100.00
2022-08-25T21:32:22.687Z,100.00
2022-08-25T21:34:54.354Z,100.00
2022-08-25T21:37:22.034Z,100.00
2022-08-25T21:39:49.807Z,100.00
2022-08-25T21:42:17.493Z,100.00
2022-08-25T21:44:45.235Z,100.00
2022-08-25T21:47:12.835Z,100.00
2022-08-25T21:49:40.401Z,100.00
2022-08-25T21:52:08.173Z,100.00
2022-08-25T21:54:35.722Z,100.00
2022-08-25T21:57:06.026Z,100.00
2022-08-25T21:59:36.896Z,100.00
2022-08-25T22:02:08.871Z,100.00
2022-08-25T22:04:38.923Z,100.00
2022-08-25T22:07:09.095Z,100.00
2022-08-25T22:09:37.144Z,100.00
2022-08-25T22:12:06.115Z,100.00
2022-08-25T22:14:34.323Z,100.00
2022-08-25T22:17:02.374Z,100.00
2022-08-25T22:19:30.004Z,100.00
2022-08-25T22:22:01.723Z,100.00
2022-08-25T22:24:29.254Z,100.00
2022-08-25T22:26:57.130Z,100.00
2022-08-25T22:29:26.192Z,100.00
2022-08-25T22:32:00.699Z,100.00
2022-08-25T22:34:34.701Z,100.00
2022-08-25T22:37:07.690Z,100.00
2022-08-25T22:39:36.173Z,100.00
2022-08-25T22:42:06.273Z,100.00
2022-08-25T22:44:33.673Z,100.00
2022-08-25T22:47:01.253Z,100.00
2022-08-25T22:49:29.534Z,100.00
2022-08-25T22:51:57.773Z,100.00
2022-08-25T22:54:25.669Z,100.00
2022-08-25T22:56:53.903Z,100.00
2022-08-25T22:59:22.199Z,100.00
2022-08-25T23:01:52.676Z,100.00
2022-08-25T23:04:22.916Z,100.00
2022-08-25T23:06:52.743Z,100.00
2022-08-25T23:09:21.012Z,100.00
2022-08-25T23:12:20.906Z,100.00
2022-08-25T23:14:50.369Z,100.00
2022-08-25T23:17:17.976Z,100.00
2022-08-25T23:19:46.688Z,100.00
2022-08-25T23:22:16.265Z,100.00
2022-08-25T23:24:47.445Z,100.00
2022-08-25T23:27:19.923Z,100.00
2022-08-25T23:29:49.397Z,100.00
2022-08-25T23:32:18.326Z,100.00
2022-08-25T23:34:46.999Z,100.00
2022-08-25T23:37:16.079Z,100.00
2022-08-25T23:39:47.495Z,100.00
2022-08-25T23:42:19.440Z,100.00
2022-08-25T23:44:48.189Z,100.00
2022-08-25T23:47:16.809Z,100.00
2022-08-25T23:49:44.539Z,100.00
2022-08-25T23:52:12.270Z,100.00
2022-08-25T23:54:39.811Z,100.00
2022-08-25T23:57:07.300Z,100.00
2022-08-25T23:59:38.262Z,100.00
